sensor_id;sensor_type;location;lat;lon;timestamp;P1;durP1;ratioP1;P2;durP2;ratioP2
7191;SDS011;3637;51.494;11.958;2022-08-01T00:00:52;3.40;;;3.10;;
7191;SDS011;3637;51.494;11.958;2022-08-01T00:03:54;3.67;;;3.33;;
7191;SDS011;3637;51.494;11.958;2022-08-01T00:06:57;4.23;;;3.40;;
7191;SDS011;3637;51.494;11.958;2022-08-01T00:09:59;3.37;;;3.07;;
7191;SDS011;3637;51.494;11.958;2022-08-01T00:13:01;4.07;;;3.50;;
7191;SDS011;3637;51.494;11.958;2022-08-01T00:16:03;3.60;;;3.30;;
7191;SDS011;3637;51.494;11.958;2022-08-01T00:19:05;3.97;;;3.57;;
7191;SDS011;3637;51.494;11.958;2022-08-01T00:22:08;3.40;;;2.90;;
7191;SDS011;3637;51.494;11.958;2022-08-01T00:25:10;3.87;;;3.57;;
7191;SDS011;3637;51.494;11.958;2022-08-01T00:28:12;5.70;;;3.53;;
7191;SDS011;3637;51.494;11.958;2022-08-01T00:31:14;3.87;;;3.30;;
7191;SDS011;3637;51.494;11.958;2022-08-01T00:34:15;4.70;;;3.23;;
7191;SDS011;3637;51.494;11.958;2022-08-01T00:37:19;3.90;;;3.07;;
7191;SDS011;3637;51.494;11.958;2022-08-01T00:40:21;3.50;;;3.20;;
7191;SDS011;3637;51.494;11.958;2022-08-01T00:43:22;3.40;;;3.10;;
7191;SDS011;3637;51.494;11.958;2022-08-01T00:46:24;4.03;;;3.30;;
7191;SDS011;3637;51.494;11.958;2022-08-01T00:49:26;3.80;;;3.40;;
7191;SDS011;3637;51.494;11.958;2022-08-01T00:52:30;3.90;;;3.50;;
7191;SDS011;3637;51.494;11.958;2022-08-01T00:55:32;3.40;;;3.00;;
7191;SDS011;3637;51.494;11.958;2022-08-01T00:58:34;3.43;;;3.13;;
7191;SDS011;3637;51.494;11.958;2022-08-01T01:01:36;3.13;;;2.90;;
7191;SDS011;3637;51.494;11.958;2022-08-01T01:04:38;3.60;;;3.30;;
7191;SDS011;3637;51.494;11.958;2022-08-01T01:07:44;3.43;;;3.13;;
7191;SDS011;3637;51.494;11.958;2022-08-01T01:10:52;3.50;;;3.20;;
7191;SDS011;3637;51.494;11.958;2022-08-01T01:14:00;3.67;;;3.27;;
7191;SDS011;3637;51.494;11.958;2022-08-01T01:17:06;4.17;;;3.03;;
7191;SDS011;3637;51.494;11.958;2022-08-01T01:20:10;3.40;;;3.07;;
7191;SDS011;3637;51.494;11.958;2022-08-01T01:23:23;3.50;;;3.17;;
7191;SDS011;3637;51.494;11.958;2022-08-01T01:26:36;3.27;;;2.97;;
7191;SDS011;3637;51.494;11.958;2022-08-01T01:29:46;3.20;;;2.90;;
7191;SDS011;3637;51.494;11.958;2022-08-01T01:32:51;3.83;;;3.20;;
7191;SDS011;3637;51.494;11.958;2022-08-01T01:35:57;3.50;;;2.80;;
7191;SDS011;3637;51.494;11.958;2022-08-01T01:39:02;3.57;;;2.97;;
7191;SDS011;3637;51.494;11.958;2022-08-01T01:42:04;3.00;;;2.70;;
7191;SDS011;3637;51.494;11.958;2022-08-01T01:45:09;3.47;;;3.17;;
7191;SDS011;3637;51.494;11.958;2022-08-01T01:48:12;3.50;;;2.83;;
7191;SDS011;3637;51.494;11.958;2022-08-01T01:51:17;3.63;;;2.90;;
7191;SDS011;3637;51.494;11.958;2022-08-01T01:54:24;3.70;;;3.20;;
7191;SDS011;3637;51.494;11.958;2022-08-01T01:57:30;3.23;;;3.00;;
7191;SDS011;3637;51.494;11.958;2022-08-01T02:00:38;3.50;;;3.00;;
7191;SDS011;3637;51.494;11.958;2022-08-01T02:03:41;5.57;;;2.90;;
7191;SDS011;3637;51.494;11.958;2022-08-01T02:06:44;3.17;;;2.87;;
7191;SDS011;3637;51.494;11.958;2022-08-01T02:09:47;3.20;;;2.90;;
7191;SDS011;3637;51.494;11.958;2022-08-01T02:12:50;3.17;;;2.87;;
7191;SDS011;3637;51.494;11.958;2022-08-01T02:15:53;4.57;;;3.13;;
7191;SDS011;3637;51.494;11.958;2022-08-01T02:18:56;3.40;;;3.10;;
7191;SDS011;3637;51.494;11.958;2022-08-01T02:21:59;3.77;;;2.97;;
7191;SDS011;3637;51.494;11.958;2022-08-01T02:25:06;2.90;;;2.67;;
7191;SDS011;3637;51.494;11.958;2022-08-01T02:28:13;3.50;;;3.20;;
7191;SDS011;3637;51.494;11.958;2022-08-01T02:31:20;2.93;;;2.63;;
7191;SDS011;3637;51.494;11.958;2022-08-01T02:34:23;3.83;;;2.70;;
7191;SDS011;3637;51.494;11.958;2022-08-01T02:37:33;2.80;;;2.60;;
7191;SDS011;3637;51.494;11.958;2022-08-01T02:40:37;3.13;;;2.80;;
7191;SDS011;3637;51.494;11.958;2022-08-01T02:43:43;3.27;;;2.83;;
7191;SDS011;3637;51.494;11.958;2022-08-01T02:46:51;2.97;;;2.63;;
7191;SDS011;3637;51.494;11.958;2022-08-01T02:49:57;3.43;;;2.70;;
7191;SDS011;3637;51.494;11.958;2022-08-01T02:53:01;3.17;;;2.70;;
7191;SDS011;3637;51.494;11.958;2022-08-01T02:56:05;2.73;;;2.50;;
7191;SDS011;3637;51.494;11.958;2022-08-01T02:59:09;2.60;;;2.40;;
7191;SDS011;3637;51.494;11.958;2022-08-01T03:02:15;2.77;;;2.53;;
7191;SDS011;3637;51.494;11.958;2022-08-01T03:05:18;2.97;;;2.63;;
7191;SDS011;3637;51.494;11.958;2022-08-01T03:08:21;2.97;;;2.40;;
7191;SDS011;3637;51.494;11.958;2022-08-01T03:11:25;3.23;;;2.53;;
7191;SDS011;3637;51.494;11.958;2022-08-01T03:14:28;2.80;;;2.40;;
7191;SDS011;3637;51.494;11.958;2022-08-01T03:17:34;2.37;;;2.17;;
7191;SDS011;3637;51.494;11.958;2022-08-01T03:20:38;2.77;;;2.30;;
7191;SDS011;3637;51.494;11.958;2022-08-01T03:23:42;2.20;;;2.00;;
7191;SDS011;3637;51.494;11.958;2022-08-01T03:26:46;2.50;;;2.13;;
7191;SDS011;3637;51.494;11.958;2022-08-01T03:29:49;5.43;;;2.60;;
7191;SDS011;3637;51.494;11.958;2022-08-01T03:32:54;2.40;;;2.10;;
7191;SDS011;3637;51.494;11.958;2022-08-01T03:35:56;2.30;;;2.10;;
7191;SDS011;3637;51.494;11.958;2022-08-01T03:39:03;2.00;;;1.90;;
7191;SDS011;3637;51.494;11.958;2022-08-01T03:42:09;2.40;;;2.20;;
7191;SDS011;3637;51.494;11.958;2022-08-01T03:45:15;2.10;;;1.90;;
7191;SDS011;3637;51.494;11.958;2022-08-01T03:48:26;2.47;;;2.27;;
7191;SDS011;3637;51.494;11.958;2022-08-01T03:51:30;1.90;;;1.80;;
7191;SDS011;3637;51.494;11.958;2022-08-01T03:54:34;2.30;;;2.10;;
7191;SDS011;3637;51.494;11.958;2022-08-01T03:57:38;1.73;;;1.63;;
7191;SDS011;3637;51.494;11.958;2022-08-01T04:00:40;2.40;;;2.20;;
7191;SDS011;3637;51.494;11.958;2022-08-01T04:03:45;2.47;;;2.23;;
7191;SDS011;3637;51.494;11.958;2022-08-01T04:06:48;2.20;;;1.87;;
7191;SDS011;3637;51.494;11.958;2022-08-01T04:09:53;2.50;;;2.30;;
7191;SDS011;3637;51.494;11.958;2022-08-01T04:12:55;2.20;;;2.00;;
7191;SDS011;3637;51.494;11.958;2022-08-01T04:15:57;2.43;;;2.23;;
7191;SDS011;3637;51.494;11.958;2022-08-01T04:19:00;2.20;;;2.00;;
7191;SDS011;3637;51.494;11.958;2022-08-01T04:22:03;2.87;;;2.00;;
7191;SDS011;3637;51.494;11.958;2022-08-01T04:25:08;2.47;;;2.23;;
7191;SDS011;3637;51.494;11.958;2022-08-01T04:28:13;2.33;;;2.10;;
7191;SDS011;3637;51.494;11.958;2022-08-01T04:31:17;2.53;;;2.33;;
7191;SDS011;3637;51.494;11.958;2022-08-01T04:34:21;2.00;;;1.90;;
7191;SDS011;3637;51.494;11.958;2022-08-01T04:37:26;3.10;;;2.00;;
7191;SDS011;3637;51.494;11.958;2022-08-01T04:40:30;2.47;;;2.10;;
7191;SDS011;3637;51.494;11.958;2022-08-01T04:43:33;2.00;;;1.80;;
7191;SDS011;3637;51.494;11.958;2022-08-01T04:46:35;1.97;;;1.77;;
7191;SDS011;3637;51.494;11.958;2022-08-01T04:49:39;1.90;;;1.80;;
7191;SDS011;3637;51.494;11.958;2022-08-01T04:52:42;1.90;;;1.70;;
7191;SDS011;3637;51.494;11.958;2022-08-01T04:55:44;2.23;;;1.90;;
7191;SDS011;3637;51.494;11.958;2022-08-01T04:58:46;2.33;;;2.13;;
7191;SDS011;3637;51.494;11.958;2022-08-01T05:02:09;2.10;;;1.90;;
7191;SDS011;3637;51.494;11.958;2022-08-01T05:05:14;7.33;;;1.90;;
7191;SDS011;3637;51.494;11.958;2022-08-01T05:08:16;2.13;;;1.93;;
7191;SDS011;3637;51.494;11.958;2022-08-01T05:11:17;2.30;;;2.10;;
7191;SDS011;3637;51.494;11.958;2022-08-01T05:14:19;4.37;;;2.60;;
7191;SDS011;3637;51.494;11.958;2022-08-01T05:17:22;2.97;;;2.20;;
7191;SDS011;3637;51.494;11.958;2022-08-01T05:20:25;4.97;;;2.37;;
7191;SDS011;3637;51.494;11.958;2022-08-01T05:23:27;3.83;;;2.57;;
7191;SDS011;3637;51.494;11.958;2022-08-01T05:26:29;3.10;;;2.30;;
7191;SDS011;3637;51.494;11.958;2022-08-01T05:29:30;3.63;;;2.23;;
7191;SDS011;3637;51.494;11.958;2022-08-01T05:32:32;9.43;;;3.13;;
7191;SDS011;3637;51.494;11.958;2022-08-01T05:35:36;8.33;;;2.50;;
7191;SDS011;3637;51.494;11.958;2022-08-01T05:38:38;2.80;;;2.50;;
7191;SDS011;3637;51.494;11.958;2022-08-01T05:41:41;2.20;;;2.00;;
7191;SDS011;3637;51.494;11.958;2022-08-01T05:44:43;2.07;;;1.90;;
7191;SDS011;3637;51.494;11.958;2022-08-01T05:47:45;3.20;;;2.00;;
7191;SDS011;3637;51.494;11.958;2022-08-01T05:50:48;3.60;;;2.23;;
7191;SDS011;3637;51.494;11.958;2022-08-01T05:53:50;3.10;;;2.00;;
7191;SDS011;3637;51.494;11.958;2022-08-01T05:56:54;2.47;;;2.07;;
7191;SDS011;3637;51.494;11.958;2022-08-01T05:59:59;2.60;;;2.07;;
7191;SDS011;3637;51.494;11.958;2022-08-01T06:03:01;2.00;;;1.80;;
7191;SDS011;3637;51.494;11.958;2022-08-01T06:06:04;1.70;;;1.60;;
7191;SDS011;3637;51.494;11.958;2022-08-01T06:09:06;9.03;;;2.00;;
7191;SDS011;3637;51.494;11.958;2022-08-01T06:12:08;7.53;;;1.87;;
7191;SDS011;3637;51.494;11.958;2022-08-01T06:15:10;5.73;;;1.90;;
7191;SDS011;3637;51.494;11.958;2022-08-01T06:18:12;2.67;;;2.23;;
7191;SDS011;3637;51.494;11.958;2022-08-01T06:21:16;2.93;;;2.00;;
7191;SDS011;3637;51.494;11.958;2022-08-01T06:24:18;2.57;;;1.73;;
7191;SDS011;3637;51.494;11.958;2022-08-01T06:27:20;4.20;;;2.07;;
7191;SDS011;3637;51.494;11.958;2022-08-01T06:30:22;2.30;;;1.77;;
7191;SDS011;3637;51.494;11.958;2022-08-01T06:33:24;2.37;;;1.60;;
7191;SDS011;3637;51.494;11.958;2022-08-01T06:36:27;4.33;;;2.13;;
7191;SDS011;3637;51.494;11.958;2022-08-01T06:39:29;2.33;;;1.60;;
7191;SDS011;3637;51.494;11.958;2022-08-01T06:42:31;3.23;;;1.70;;
7191;SDS011;3637;51.494;11.958;2022-08-01T06:45:35;1.73;;;1.60;;
7191;SDS011;3637;51.494;11.958;2022-08-01T06:48:37;1.50;;;1.40;;
7191;SDS011;3637;51.494;11.958;2022-08-01T06:51:40;2.83;;;1.77;;
7191;SDS011;3637;51.494;11.958;2022-08-01T06:54:42;1.60;;;1.50;;
7191;SDS011;3637;51.494;11.958;2022-08-01T06:57:45;1.60;;;1.50;;
7191;SDS011;3637;51.494;11.958;2022-08-01T07:00:47;1.53;;;1.43;;
7191;SDS011;3637;51.494;11.958;2022-08-01T07:03:49;1.43;;;1.33;;
7191;SDS011;3637;51.494;11.958;2022-08-01T07:06:54;1.40;;;1.30;;
7191;SDS011;3637;51.494;11.958;2022-08-01T07:09:55;1.50;;;1.40;;
7191;SDS011;3637;51.494;11.958;2022-08-01T07:12:58;1.73;;;1.40;;
7191;SDS011;3637;51.494;11.958;2022-08-01T07:15:59;1.60;;;1.50;;
7191;SDS011;3637;51.494;11.958;2022-08-01T07:19:01;1.57;;;1.47;;
7191;SDS011;3637;51.494;11.958;2022-08-01T07:22:10;1.43;;;1.33;;
7191;SDS011;3637;51.494;11.958;2022-08-01T07:25:14;1.30;;;1.20;;
7191;SDS011;3637;51.494;11.958;2022-08-01T07:28:18;1.33;;;1.23;;
7191;SDS011;3637;51.494;11.958;2022-08-01T07:31:20;1.77;;;1.23;;
7191;SDS011;3637;51.494;11.958;2022-08-01T07:34:23;1.40;;;1.30;;
7191;SDS011;3637;51.494;11.958;2022-08-01T07:37:27;1.40;;;1.30;;
7191;SDS011;3637;51.494;11.958;2022-08-01T07:40:29;1.40;;;1.30;;
7191;SDS011;3637;51.494;11.958;2022-08-01T07:43:31;1.30;;;1.20;;
7191;SDS011;3637;51.494;11.958;2022-08-01T07:46:32;1.67;;;1.57;;
7191;SDS011;3637;51.494;11.958;2022-08-01T07:49:34;1.50;;;1.40;;
7191;SDS011;3637;51.494;11.958;2022-08-01T07:52:38;1.20;;;1.10;;
7191;SDS011;3637;51.494;11.958;2022-08-01T07:55:40;1.10;;;1.10;;
7191;SDS011;3637;51.494;11.958;2022-08-01T07:58:41;2.07;;;1.30;;
7191;SDS011;3637;51.494;11.958;2022-08-01T08:01:43;1.37;;;1.27;;
7191;SDS011;3637;51.494;11.958;2022-08-01T08:04:45;1.10;;;1.00;;
7191;SDS011;3637;51.494;11.958;2022-08-01T08:07:48;1.03;;;1.03;;
7191;SDS011;3637;51.494;11.958;2022-08-01T08:10:50;3.17;;;1.30;;
7191;SDS011;3637;51.494;11.958;2022-08-01T08:13:52;0.97;;;0.97;;
7191;SDS011;3637;51.494;11.958;2022-08-01T08:16:54;0.80;;;0.80;;
7191;SDS011;3637;51.494;11.958;2022-08-01T08:19:56;0.80;;;0.80;;
7191;SDS011;3637;51.494;11.958;2022-08-01T08:22:59;0.80;;;0.80;;
7191;SDS011;3637;51.494;11.958;2022-08-01T08:26:01;0.80;;;0.80;;
7191;SDS011;3637;51.494;11.958;2022-08-01T08:29:03;0.70;;;0.70;;
7191;SDS011;3637;51.494;11.958;2022-08-01T08:32:05;0.67;;;0.67;;
7191;SDS011;3637;51.494;11.958;2022-08-01T08:35:08;0.80;;;0.80;;
7191;SDS011;3637;51.494;11.958;2022-08-01T08:38:12;0.97;;;0.97;;
7191;SDS011;3637;51.494;11.958;2022-08-01T08:41:14;0.90;;;0.90;;
7191;SDS011;3637;51.494;11.958;2022-08-01T08:44:16;1.13;;;1.10;;
7191;SDS011;3637;51.494;11.958;2022-08-01T08:47:20;1.30;;;1.20;;
7191;SDS011;3637;51.494;11.958;2022-08-01T08:50:23;1.20;;;1.10;;
7191;SDS011;3637;51.494;11.958;2022-08-01T08:53:27;1.17;;;1.10;;
7191;SDS011;3637;51.494;11.958;2022-08-01T08:56:30;1.70;;;1.13;;
7191;SDS011;3637;51.494;11.958;2022-08-01T08:59:34;1.20;;;1.10;;
7191;SDS011;3637;51.494;11.958;2022-08-01T09:02:36;1.00;;;1.00;;
7191;SDS011;3637;51.494;11.958;2022-08-01T09:05:41;1.17;;;1.07;;
7191;SDS011;3637;51.494;11.958;2022-08-01T09:08:45;1.00;;;1.00;;
7191;SDS011;3637;51.494;11.958;2022-08-01T09:11:47;1.20;;;1.07;;
7191;SDS011;3637;51.494;11.958;2022-08-01T09:14:49;1.10;;;1.10;;
7191;SDS011;3637;51.494;11.958;2022-08-01T09:17:53;1.17;;;1.10;;
7191;SDS011;3637;51.494;11.958;2022-08-01T09:21:06;1.70;;;1.60;;
7191;SDS011;3637;51.494;11.958;2022-08-01T09:24:14;1.50;;;1.40;;
7191;SDS011;3637;51.494;11.958;2022-08-01T09:27:18;1.50;;;1.40;;
7191;SDS011;3637;51.494;11.958;2022-08-01T09:30:23;1.50;;;1.40;;
7191;SDS011;3637;51.494;11.958;2022-08-01T09:33:25;2.07;;;1.87;;
7191;SDS011;3637;51.494;11.958;2022-08-01T09:36:48;1.80;;;1.70;;
7191;SDS011;3637;51.494;11.958;2022-08-01T09:39:56;1.77;;;1.67;;
7191;SDS011;3637;51.494;11.958;2022-08-01T09:43:09;2.10;;;1.90;;
7191;SDS011;3637;51.494;11.958;2022-08-01T09:46:12;1.80;;;1.70;;
7191;SDS011;3637;51.494;11.958;2022-08-01T09:49:14;2.03;;;1.90;;
7191;SDS011;3637;51.494;11.958;2022-08-01T09:52:16;2.83;;;2.00;;
7191;SDS011;3637;51.494;11.958;2022-08-01T09:55:21;2.50;;;2.30;;
7191;SDS011;3637;51.494;11.958;2022-08-01T09:58:24;3.33;;;2.50;;
7191;SDS011;3637;51.494;11.958;2022-08-01T10:01:26;2.30;;;2.10;;
7191;SDS011;3637;51.494;11.958;2022-08-01T10:04:28;2.30;;;2.10;;
7191;SDS011;3637;51.494;11.958;2022-08-01T10:07:30;2.50;;;2.30;;
7191;SDS011;3637;51.494;11.958;2022-08-01T10:10:33;3.53;;;2.20;;
7191;SDS011;3637;51.494;11.958;2022-08-01T10:13:36;2.10;;;1.90;;
7191;SDS011;3637;51.494;11.958;2022-08-01T10:16:38;2.20;;;2.00;;
7191;SDS011;3637;51.494;11.958;2022-08-01T10:19:41;2.10;;;1.90;;
7191;SDS011;3637;51.494;11.958;2022-08-01T10:22:43;1.80;;;1.70;;
7191;SDS011;3637;51.494;11.958;2022-08-01T10:25:47;2.10;;;1.90;;
7191;SDS011;3637;51.494;11.958;2022-08-01T10:28:50;1.80;;;1.70;;
7191;SDS011;3637;51.494;11.958;2022-08-01T10:31:53;1.27;;;1.20;;
7191;SDS011;3637;51.494;11.958;2022-08-01T10:34:55;1.30;;;1.20;;
7191;SDS011;3637;51.494;11.958;2022-08-01T10:37:58;1.20;;;1.10;;
7191;SDS011;3637;51.494;11.958;2022-08-01T10:41:02;1.23;;;1.13;;
7191;SDS011;3637;51.494;11.958;2022-08-01T10:44:05;2.10;;;2.00;;
7191;SDS011;3637;51.494;11.958;2022-08-01T10:47:08;1.50;;;1.40;;
7191;SDS011;3637;51.494;11.958;2022-08-01T10:50:13;1.53;;;1.43;;
7191;SDS011;3637;51.494;11.958;2022-08-01T10:53:19;1.40;;;1.30;;
7191;SDS011;3637;51.494;11.958;2022-08-01T10:56:23;1.47;;;1.37;;
7191;SDS011;3637;51.494;11.958;2022-08-01T10:59:47;1.53;;;1.43;;
7191;SDS011;3637;51.494;11.958;2022-08-01T11:02:57;2.00;;;1.80;;
7191;SDS011;3637;51.494;11.958;2022-08-01T11:06:00;1.70;;;1.60;;
7191;SDS011;3637;51.494;11.958;2022-08-01T11:09:05;2.30;;;2.10;;
7191;SDS011;3637;51.494;11.958;2022-08-01T11:12:25;2.00;;;1.90;;
7191;SDS011;3637;51.494;11.958;2022-08-01T11:15:40;4.90;;;2.50;;
7191;SDS011;3637;51.494;11.958;2022-08-01T11:18:49;2.70;;;2.50;;
7191;SDS011;3637;51.494;11.958;2022-08-01T11:21:58;2.50;;;2.30;;
7191;SDS011;3637;51.494;11.958;2022-08-01T11:25:04;2.00;;;1.90;;
7191;SDS011;3637;51.494;11.958;2022-08-01T11:28:18;2.37;;;2.17;;
7191;SDS011;3637;51.494;11.958;2022-08-01T11:31:24;2.20;;;2.00;;
7191;SDS011;3637;51.494;11.958;2022-08-01T11:37:53;1.77;;;1.50;;
7191;SDS011;3637;51.494;11.958;2022-08-01T11:41:08;1.80;;;1.70;;
7191;SDS011;3637;51.494;11.958;2022-08-01T11:44:14;1.70;;;1.60;;
7191;SDS011;3637;51.494;11.958;2022-08-01T11:47:18;2.27;;;1.60;;
7191;SDS011;3637;51.494;11.958;2022-08-01T11:50:39;1.60;;;1.50;;
7191;SDS011;3637;51.494;11.958;2022-08-01T11:53:45;1.80;;;1.70;;
7191;SDS011;3637;51.494;11.958;2022-08-01T11:56:47;1.83;;;1.73;;
7191;SDS011;3637;51.494;11.958;2022-08-01T11:59:51;1.90;;;1.80;;
7191;SDS011;3637;51.494;11.958;2022-08-01T12:02:57;2.83;;;2.00;;
7191;SDS011;3637;51.494;11.958;2022-08-01T12:05:59;2.33;;;1.97;;
7191;SDS011;3637;51.494;11.958;2022-08-01T12:09:14;1.83;;;1.73;;
7191;SDS011;3637;51.494;11.958;2022-08-01T12:12:17;2.27;;;2.07;;
7191;SDS011;3637;51.494;11.958;2022-08-01T12:15:21;2.20;;;2.00;;
7191;SDS011;3637;51.494;11.958;2022-08-01T12:18:24;2.00;;;1.87;;
7191;SDS011;3637;51.494;11.958;2022-08-01T12:21:27;2.03;;;1.93;;
7191;SDS011;3637;51.494;11.958;2022-08-01T12:24:28;1.90;;;1.80;;
7191;SDS011;3637;51.494;11.958;2022-08-01T12:27:30;1.90;;;1.80;;
7191;SDS011;3637;51.494;11.958;2022-08-01T12:30:34;1.60;;;1.50;;
7191;SDS011;3637;51.494;11.958;2022-08-01T12:33:37;1.70;;;1.60;;
7191;SDS011;3637;51.494;11.958;2022-08-01T12:36:38;1.90;;;1.80;;
7191;SDS011;3637;51.494;11.958;2022-08-01T12:39:40;1.70;;;1.60;;
7191;SDS011;3637;51.494;11.958;2022-08-01T12:42:43;1.77;;;1.67;;
7191;SDS011;3637;51.494;11.958;2022-08-01T12:45:49;1.50;;;1.40;;
7191;SDS011;3637;51.494;11.958;2022-08-01T12:48:52;2.23;;;1.50;;
7191;SDS011;3637;51.494;11.958;2022-08-01T12:51:54;2.20;;;1.70;;
7191;SDS011;3637;51.494;11.958;2022-08-01T12:55:07;1.80;;;1.70;;
7191;SDS011;3637;51.494;11.958;2022-08-01T12:58:11;1.60;;;1.50;;
7191;SDS011;3637;51.494;11.958;2022-08-01T13:01:16;1.77;;;1.67;;
7191;SDS011;3637;51.494;11.958;2022-08-01T13:04:27;3.23;;;1.90;;
7191;SDS011;3637;51.494;11.958;2022-08-01T13:07:36;2.10;;;1.90;;
7191;SDS011;3637;51.494;11.958;2022-08-01T13:10:40;2.43;;;2.20;;
7191;SDS011;3637;51.494;11.958;2022-08-01T13:13:42;1.70;;;1.60;;
7191;SDS011;3637;51.494;11.958;2022-08-01T13:16:48;1.97;;;1.87;;
7191;SDS011;3637;51.494;11.958;2022-08-01T13:19:50;1.80;;;1.70;;
7191;SDS011;3637;51.494;11.958;2022-08-01T13:22:53;1.73;;;1.63;;
7191;SDS011;3637;51.494;11.958;2022-08-01T13:25:55;1.60;;;1.50;;
7191;SDS011;3637;51.494;11.958;2022-08-01T13:29:03;1.57;;;1.47;;
7191;SDS011;3637;51.494;11.958;2022-08-01T13:32:14;1.40;;;1.30;;
7191;SDS011;3637;51.494;11.958;2022-08-01T13:35:16;1.77;;;1.50;;
7191;SDS011;3637;51.494;11.958;2022-08-01T13:38:22;1.97;;;1.80;;
7191;SDS011;3637;51.494;11.958;2022-08-01T13:41:44;2.27;;;2.07;;
7191;SDS011;3637;51.494;11.958;2022-08-01T13:44:46;2.20;;;2.00;;
7191;SDS011;3637;51.494;11.958;2022-08-01T13:47:49;2.37;;;2.17;;
7191;SDS011;3637;51.494;11.958;2022-08-01T13:50:51;2.77;;;2.57;;
7191;SDS011;3637;51.494;11.958;2022-08-01T13:53:53;2.70;;;2.50;;
7191;SDS011;3637;51.494;11.958;2022-08-01T13:56:55;2.80;;;2.60;;
7191;SDS011;3637;51.494;11.958;2022-08-01T13:59:57;2.90;;;2.50;;
7191;SDS011;3637;51.494;11.958;2022-08-01T14:03:01;3.13;;;2.80;;
7191;SDS011;3637;51.494;11.958;2022-08-01T14:06:03;3.20;;;2.90;;
7191;SDS011;3637;51.494;11.958;2022-08-01T14:09:05;3.27;;;2.97;;
7191;SDS011;3637;51.494;11.958;2022-08-01T14:12:07;2.80;;;2.60;;
7191;SDS011;3637;51.494;11.958;2022-08-01T14:15:09;3.07;;;2.77;;
7191;SDS011;3637;51.494;11.958;2022-08-01T14:18:13;2.90;;;2.67;;
7191;SDS011;3637;51.494;11.958;2022-08-01T14:21:15;2.40;;;2.20;;
7191;SDS011;3637;51.494;11.958;2022-08-01T14:24:17;2.47;;;2.20;;
7191;SDS011;3637;51.494;11.958;2022-08-01T14:27:18;2.20;;;2.00;;
7191;SDS011;3637;51.494;11.958;2022-08-01T14:30:20;2.13;;;1.93;;
7191;SDS011;3637;51.494;11.958;2022-08-01T14:33:23;2.20;;;2.00;;
7191;SDS011;3637;51.494;11.958;2022-08-01T14:36:26;2.10;;;1.90;;
7191;SDS011;3637;51.494;11.958;2022-08-01T14:39:28;2.00;;;1.83;;
7191;SDS011;3637;51.494;11.958;2022-08-01T14:42:29;1.93;;;1.73;;
7191;SDS011;3637;51.494;11.958;2022-08-01T14:45:31;1.90;;;1.80;;
7191;SDS011;3637;51.494;11.958;2022-08-01T14:48:35;2.07;;;1.87;;
7191;SDS011;3637;51.494;11.958;2022-08-01T14:51:37;1.80;;;1.70;;
7191;SDS011;3637;51.494;11.958;2022-08-01T14:54:39;1.70;;;1.60;;
7191;SDS011;3637;51.494;11.958;2022-08-01T14:57:41;1.70;;;1.60;;
7191;SDS011;3637;51.494;11.958;2022-08-01T15:00:43;1.70;;;1.60;;
7191;SDS011;3637;51.494;11.958;2022-08-01T15:03:46;1.73;;;1.63;;
7191;SDS011;3637;51.494;11.958;2022-08-01T15:06:50;1.90;;;1.80;;
7191;SDS011;3637;51.494;11.958;2022-08-01T15:09:51;2.10;;;2.00;;
7191;SDS011;3637;51.494;11.958;2022-08-01T15:12:53;2.10;;;1.90;;
7191;SDS011;3637;51.494;11.958;2022-08-01T15:15:55;2.30;;;2.13;;
7191;SDS011;3637;51.494;11.958;2022-08-01T15:18:59;2.20;;;2.00;;
7191;SDS011;3637;51.494;11.958;2022-08-01T15:22:01;2.13;;;2.03;;
7191;SDS011;3637;51.494;11.958;2022-08-01T15:25:04;2.30;;;2.10;;
7191;SDS011;3637;51.494;11.958;2022-08-01T15:28:07;1.83;;;1.73;;
7191;SDS011;3637;51.494;11.958;2022-08-01T15:31:09;1.90;;;1.80;;
7191;SDS011;3637;51.494;11.958;2022-08-01T15:34:12;1.90;;;1.80;;
7191;SDS011;3637;51.494;11.958;2022-08-01T15:37:14;2.00;;;1.90;;
7191;SDS011;3637;51.494;11.958;2022-08-01T15:40:16;2.27;;;2.07;;
7191;SDS011;3637;51.494;11.958;2022-08-01T15:43:18;1.90;;;1.80;;
7191;SDS011;3637;51.494;11.958;2022-08-01T15:46:20;2.70;;;2.20;;
7191;SDS011;3637;51.494;11.958;2022-08-01T15:49:23;2.10;;;1.90;;
7191;SDS011;3637;51.494;11.958;2022-08-01T15:52:25;2.20;;;2.00;;
7191;SDS011;3637;51.494;11.958;2022-08-01T15:55:27;2.30;;;2.10;;
7191;SDS011;3637;51.494;11.958;2022-08-01T15:58:29;2.30;;;2.10;;
7191;SDS011;3637;51.494;11.958;2022-08-01T16:01:31;2.20;;;2.00;;
7191;SDS011;3637;51.494;11.958;2022-08-01T16:04:35;2.00;;;1.80;;
7191;SDS011;3637;51.494;11.958;2022-08-01T16:07:36;2.30;;;2.10;;
7191;SDS011;3637;51.494;11.958;2022-08-01T16:10:38;2.13;;;1.93;;
7191;SDS011;3637;51.494;11.958;2022-08-01T16:13:41;1.90;;;1.80;;
7191;SDS011;3637;51.494;11.958;2022-08-01T16:16:42;2.00;;;1.90;;
7191;SDS011;3637;51.494;11.958;2022-08-01T16:19:46;2.10;;;2.00;;
7191;SDS011;3637;51.494;11.958;2022-08-01T16:22:49;1.80;;;1.70;;
7191;SDS011;3637;51.494;11.958;2022-08-01T16:25:51;2.00;;;1.80;;
7191;SDS011;3637;51.494;11.958;2022-08-01T16:28:54;1.93;;;1.83;;
7191;SDS011;3637;51.494;11.958;2022-08-01T16:31:57;2.03;;;1.83;;
7191;SDS011;3637;51.494;11.958;2022-08-01T16:35:00;2.10;;;1.90;;
7191;SDS011;3637;51.494;11.958;2022-08-01T16:38:02;2.17;;;2.03;;
7191;SDS011;3637;51.494;11.958;2022-08-01T16:41:04;1.70;;;1.60;;
7191;SDS011;3637;51.494;11.958;2022-08-01T16:44:06;1.80;;;1.70;;
7191;SDS011;3637;51.494;11.958;2022-08-01T16:47:10;1.97;;;1.87;;
7191;SDS011;3637;51.494;11.958;2022-08-01T16:50:13;1.80;;;1.70;;
7191;SDS011;3637;51.494;11.958;2022-08-01T16:53:15;1.80;;;1.70;;
7191;SDS011;3637;51.494;11.958;2022-08-01T16:56:18;1.87;;;1.73;;
7191;SDS011;3637;51.494;11.958;2022-08-01T16:59:20;1.80;;;1.70;;
7191;SDS011;3637;51.494;11.958;2022-08-01T17:02:22;1.60;;;1.50;;
7191;SDS011;3637;51.494;11.958;2022-08-01T17:05:25;2.07;;;1.80;;
7191;SDS011;3637;51.494;11.958;2022-08-01T17:08:30;2.00;;;1.80;;
7191;SDS011;3637;51.494;11.958;2022-08-01T17:11:31;1.80;;;1.70;;
7191;SDS011;3637;51.494;11.958;2022-08-01T17:14:33;2.00;;;1.90;;
7191;SDS011;3637;51.494;11.958;2022-08-01T17:17:38;1.70;;;1.60;;
7191;SDS011;3637;51.494;11.958;2022-08-01T17:20:42;1.80;;;1.70;;
7191;SDS011;3637;51.494;11.958;2022-08-01T17:23:44;1.77;;;1.67;;
7191;SDS011;3637;51.494;11.958;2022-08-01T17:26:46;1.70;;;1.60;;
7191;SDS011;3637;51.494;11.958;2022-08-01T17:29:48;1.90;;;1.43;;
7191;SDS011;3637;51.494;11.958;2022-08-01T17:32:49;1.70;;;1.60;;
7191;SDS011;3637;51.494;11.958;2022-08-01T17:35:53;2.00;;;1.80;;
7191;SDS011;3637;51.494;11.958;2022-08-01T17:38:55;1.50;;;1.40;;
7191;SDS011;3637;51.494;11.958;2022-08-01T17:41:59;1.50;;;1.40;;
7191;SDS011;3637;51.494;11.958;2022-08-01T17:45:00;1.50;;;1.40;;
7191;SDS011;3637;51.494;11.958;2022-08-01T17:48:03;1.60;;;1.50;;
7191;SDS011;3637;51.494;11.958;2022-08-01T17:51:06;1.63;;;1.53;;
7191;SDS011;3637;51.494;11.958;2022-08-01T17:54:08;1.37;;;1.27;;
7191;SDS011;3637;51.494;11.958;2022-08-01T17:57:10;1.50;;;1.40;;
7191;SDS011;3637;51.494;11.958;2022-08-01T18:00:12;1.80;;;1.53;;
7191;SDS011;3637;51.494;11.958;2022-08-01T18:03:15;1.40;;;1.30;;
7191;SDS011;3637;51.494;11.958;2022-08-01T18:06:19;1.70;;;1.60;;
7191;SDS011;3637;51.494;11.958;2022-08-01T18:09:22;1.10;;;1.10;;
7191;SDS011;3637;51.494;11.958;2022-08-01T18:12:23;1.27;;;1.20;;
7191;SDS011;3637;51.494;11.958;2022-08-01T18:15:25;1.53;;;1.43;;
7191;SDS011;3637;51.494;11.958;2022-08-01T18:18:28;1.30;;;1.20;;
7191;SDS011;3637;51.494;11.958;2022-08-01T18:21:31;1.13;;;1.13;;
7191;SDS011;3637;51.494;11.958;2022-08-01T18:24:34;1.73;;;1.37;;
7191;SDS011;3637;51.494;11.958;2022-08-01T18:27:36;1.37;;;1.27;;
7191;SDS011;3637;51.494;11.958;2022-08-01T18:30:37;2.00;;;1.30;;
7191;SDS011;3637;51.494;11.958;2022-08-01T18:33:40;1.23;;;1.13;;
7191;SDS011;3637;51.494;11.958;2022-08-01T18:36:43;1.77;;;1.50;;
7191;SDS011;3637;51.494;11.958;2022-08-01T18:39:45;1.50;;;1.40;;
7191;SDS011;3637;51.494;11.958;2022-08-01T18:42:47;1.70;;;1.60;;
7191;SDS011;3637;51.494;11.958;2022-08-01T18:45:49;2.13;;;1.40;;